Terminal Aerodrome Forecast
Issued by NWS

Home | Current Version | Previous Version | Text Only | Print | Product List | Glossary On
Versions: 1 2 3 4 5 6 7 8 9 10 11 12 13 14 15 16 17 18
360
FTUS45 KRIW 071243 AAA
TAFJAC
TAF AMD
KJAC 071243Z 0713/0812 VRB03KT 4SM -SN BKN030
      TEMPO 0713/0714 2SM -SN BKN022
     FM071500 VRB03KT P6SM BKN040
     FM072000 VRB03KT P6SM SCT060
     FM080100 35005KT P6SM FEW250
      AMD LTD TO CLD VIS AND WIND=

USA.gov is the U.S. government's official web portal to all federal, state and local government web resources and services.